Time;durP1;ratioP1;P1;durP2;ratioP2;P2;SDS_P1;SDS_P2;PMS_P1;PMS_P2;Temp;Humidity;BMP_temperature;BMP_pressure;BME280_temperature;BME280_humidity;BME280_pressure;Samples;Min_cycle;Max_cycle;Signal;HPM_P1;HPM_P2
2023/01/25 05:14:28;;;;;;;79.55;30.77;;;;;;;-2.26;100.00;101871.44;5557683;32;181182;-88
2023/01/25 05:17:33;;;;;;;70.80;31.12;;;;;;;-2.29;100.00;101874.81;5544515;32;34497;-88
2023/01/25 05:20:36;;;;;;;69.78;30.17;;;;;;;-2.24;100.00;101877.53;5569446;32;34106;-88
2023/01/25 05:23:40;;;;;;;68.00;30.30;;;;;;;-2.23;100.00;101872.38;5566373;32;34627;-88
2023/01/25 05:30:06;;;;;;;59.58;29.55;;;;;;;-2.21;100.00;101878.50;5564278;32;33925;-88
2023/01/25 05:33:13;;;;;;;58.90;28.58;;;;;;;-2.23;100.00;101885.38;5564000;32;33978;-88
2023/01/25 05:36:17;;;;;;;55.20;26.73;;;;;;;-2.25;100.00;101884.47;5565579;32;33356;-88
2023/01/25 05:39:22;;;;;;;52.03;25.42;;;;;;;-2.26;100.00;101893.09;5564519;32;33839;-88
2023/01/25 05:42:25;;;;;;;55.45;25.90;;;;;;;-2.24;100.00;101891.44;5566280;32;34300;-88
2023/01/25 05:45:31;;;;;;;50.20;24.90;;;;;;;-2.20;100.00;101884.59;5570504;32;34095;-88
2023/01/25 05:48:35;;;;;;;48.47;24.85;;;;;;;-2.20;100.00;101879.41;5562777;32;34024;-88
2023/01/25 05:51:39;;;;;;;45.65;24.90;;;;;;;-2.23;100.00;101874.09;5563009;32;33863;-88
2023/01/25 05:54:42;;;;;;;52.38;25.33;;;;;;;-2.27;100.00;101877.47;5567540;32;33588;-88
2023/01/25 05:57:45;;;;;;;52.62;25.85;;;;;;;-2.26;100.00;101879.22;5569915;32;36836;-91
2023/01/25 06:00:48;;;;;;;50.85;25.58;;;;;;;-2.03;100.00;101885.03;5565161;32;33993;-91
2023/01/25 06:03:52;;;;;;;46.53;23.42;;;;;;;-2.04;100.00;101880.69;5573068;32;34446;-91
2023/01/25 06:06:56;;;;;;;47.00;24.40;;;;;;;-2.06;100.00;101878.03;5573586;32;34875;-88
2023/01/25 06:09:59;;;;;;;45.08;24.58;;;;;;;-2.01;100.00;101882.50;5573614;32;34406;-85
2023/01/25 06:13:03;;;;;;;43.42;23.45;;;;;;;-1.90;100.00;101881.06;5575275;32;33698;-85
2023/01/25 06:16:08;;;;;;;44.60;24.00;;;;;;;-1.84;100.00;101885.53;5587148;32;32756;-84
2023/01/25 06:19:12;;;;;;;45.72;23.15;;;;;;;-1.60;100.00;101882.69;5583903;32;34607;-85
2023/01/25 06:22:16;;;;;;;42.42;22.77;;;;;;;-1.67;100.00;101896.34;5577644;32;34407;-87
2023/01/25 06:25:19;;;;;;;44.70;22.87;;;;;;;-1.63;100.00;101888.69;5564526;32;34695;-85
2023/01/25 06:28:22;;;;;;;37.28;21.37;;;;;;;-1.79;100.00;101900.44;5554166;32;34027;-84
2023/01/25 06:31:24;;;;;;;42.78;23.12;;;;;;;-1.80;100.00;101896.03;5549524;32;34868;-85
2023/01/25 06:34:28;;;;;;;44.85;23.05;;;;;;;-1.85;100.00;101905.47;5550239;32;35289;-85
2023/01/25 06:37:30;;;;;;;39.28;21.10;;;;;;;-1.72;100.00;101906.66;5540363;32;35246;-85
2023/01/25 06:40:34;;;;;;;42.83;23.08;;;;;;;-1.73;100.00;101910.09;5545789;32;34172;-85
2023/01/25 06:43:37;;;;;;;45.25;24.67;;;;;;;-1.85;100.00;101913.28;5548406;32;33915;-85
2023/01/25 06:46:40;;;;;;;52.60;25.12;;;;;;;-1.94;100.00;101911.31;5551132;32;34512;-87
2023/01/25 06:49:43;;;;;;;57.58;26.10;;;;;;;-1.88;100.00;101910.59;5547356;32;34167;-86
2023/01/25 06:52:54;;;;;;;50.85;25.20;;;;;;;-1.90;100.00;101915.75;5552320;32;33921;-86
2023/01/25 06:56:11;;;;;;;57.65;27.35;;;;;;;-1.67;100.00;101904.16;5538099;32;34587;-85
2023/01/25 06:59:16;;;;;;;50.17;25.98;;;;;;;-1.70;100.00;101905.00;5542973;32;34167;-85
2023/01/25 07:02:20;;;;;;;47.05;23.90;;;;;;;-1.73;100.00;101907.50;5545614;32;34167;-87
2023/01/25 07:05:23;;;;;;;47.30;24.45;;;;;;;-1.76;100.00;101907.44;5547643;32;33947;-88
2023/01/25 07:08:26;;;;;;;48.30;24.35;;;;;;;-1.78;100.00;101914.31;5539146;32;35375;-89
2023/01/25 07:11:29;;;;;;;42.50;22.87;;;;;;;-1.79;100.00;101913.44;5540695;32;33935;-87
2023/01/25 07:14:32;;;;;;;38.85;22.48;;;;;;;-1.69;100.00;101911.97;5538771;32;35044;-87
2023/01/25 07:17:35;;;;;;;44.40;23.73;;;;;;;-1.66;100.00;101906.81;5549363;32;33966;-87
2023/01/25 07:20:38;;;;;;;46.67;23.40;;;;;;;-1.59;100.00;101905.25;5553784;32;33826;-87
2023/01/25 07:23:42;;;;;;;48.03;22.62;;;;;;;-1.47;100.00;101901.22;5540822;32;33635;-87
2023/01/25 07:26:47;;;;;;;37.67;20.70;;;;;;;-1.29;100.00;101901.66;5535610;32;33809;-87
2023/01/25 07:29:51;;;;;;;38.45;20.27;;;;;;;-1.25;100.00;101903.47;5551215;32;33978;-87
2023/01/25 07:32:54;;;;;;;34.20;19.40;;;;;;;-1.35;100.00;101898.91;5545741;32;34261;-87
2023/01/25 07:36:06;;;;;;;34.40;19.77;;;;;;;-1.43;100.00;101903.03;5534070;32;33747;-87
2023/01/25 07:39:10;;;;;;;41.20;21.50;;;;;;;-1.51;100.00;101892.44;5535088;32;34426;-86
2023/01/25 07:42:14;;;;;;;39.80;20.70;;;;;;;-1.45;100.00;101904.72;5543553;32;34165;-87
2023/01/25 07:45:28;;;;;;;40.03;20.75;;;;;;;-1.26;100.00;101904.31;5542143;32;32677;-90
2023/01/25 07:48:32;;;;;;;39.75;21.12;;;;;;;-0.99;100.00;101902.34;5541326;32;34122;-91
2023/01/25 07:51:35;;;;;;;35.00;19.55;;;;;;;-0.97;100.00;101908.44;5546351;32;34040;-88
2023/01/25 07:54:38;;;;;;;42.55;20.88;;;;;;;-0.80;100.00;101901.03;5546373;32;32753;-88
2023/01/25 07:57:41;;;;;;;34.13;18.85;;;;;;;-0.57;100.00;101901.53;5550648;32;33873;-87
2023/01/25 08:00:47;;;;;;;35.90;19.37;;;;;;;-0.73;100.00;101907.25;5544399;32;34348;-86
2023/01/25 08:03:51;;;;;;;40.20;20.58;;;;;;;-0.62;100.00;101897.03;5545515;32;33557;-86
2023/01/25 08:06:53;;;;;;;36.30;19.33;;;;;;;-0.56;100.00;101892.84;5551012;32;34082;-85
2023/01/25 08:09:56;;;;;;;35.58;19.62;;;;;;;-0.29;100.00;101896.00;5554984;32;35300;-86
2023/01/25 08:12:59;;;;;;;36.42;20.83;;;;;;;0.09;100.00;101890.63;5542310;32;33846;-86
2023/01/25 08:16:03;;;;;;;36.45;20.10;;;;;;;0.30;100.00;101891.84;5545507;32;34748;-87
2023/01/25 08:19:06;;;;;;;38.35;19.90;;;;;;;0.83;100.00;101889.19;5547009;32;34114;-86
2023/01/25 08:22:09;;;;;;;30.15;18.50;;;;;;;1.00;100.00;101890.34;5551403;32;33753;-87
2023/01/25 08:25:12;;;;;;;36.72;19.52;;;;;;;1.40;100.00;101887.37;5546984;32;34295;-86
2023/01/25 08:28:15;;;;;;;37.75;19.70;;;;;;;1.39;100.00;101885.62;5543180;32;33560;-85
2023/01/25 08:31:25;;;;;;;33.05;19.12;;;;;;;1.26;100.00;101884.59;5552354;32;34040;-85
2023/01/25 08:34:30;;;;;;;32.53;19.08;;;;;;;1.61;100.00;101881.53;5556575;32;34014;-86
2023/01/25 08:37:32;;;;;;;32.00;17.95;;;;;;;1.39;100.00;101884.75;5569840;32;34295;-86
2023/01/25 08:40:36;;;;;;;29.85;17.83;;;;;;;1.33;100.00;101881.22;5562662;32;34068;-87
2023/01/25 08:43:41;;;;;;;32.03;17.92;;;;;;;1.33;100.00;101880.31;5559411;32;34612;-87
2023/01/25 08:46:45;;;;;;;34.90;19.55;;;;;;;1.42;100.00;101877.84;5557866;32;34608;-87
2023/01/25 08:49:47;;;;;;;34.08;18.87;;;;;;;1.49;100.00;101876.16;5545185;32;33223;-88
2023/01/25 08:52:50;;;;;;;35.40;20.10;;;;;;;1.81;100.00;101880.03;5541253;32;34017;-87
2023/01/25 08:55:53;;;;;;;39.28;22.02;;;;;;;1.54;100.00;101876.22;5537816;32;34382;-87
2023/01/25 08:58:56;;;;;;;44.05;23.33;;;;;;;1.68;100.00;101872.03;5532995;32;34487;-87
2023/01/25 09:01:59;;;;;;;40.80;23.85;;;;;;;1.85;100.00;101873.94;5533371;32;34359;-86
2023/01/25 09:05:02;;;;;;;43.10;24.02;;;;;;;1.57;100.00;101868.41;5535727;32;34527;-89
2023/01/25 09:08:08;;;;;;;44.00;24.27;;;;;;;1.63;100.00;101873.72;5549103;32;33758;-87
2023/01/25 09:11:15;;;;;;;44.03;25.25;;;;;;;1.68;100.00;101869.44;5549951;32;35018;-87
2023/01/25 09:14:17;;;;;;;42.35;24.42;;;;;;;1.45;100.00;101875.25;5543117;32;34349;-86
2023/01/25 09:17:21;;;;;;;40.47;22.77;;;;;;;1.55;100.00;101871.00;5559189;32;34105;-86
2023/01/25 09:20:25;;;;;;;41.17;22.50;;;;;;;1.71;100.00;101879.03;5570641;32;33767;-87
2023/01/25 09:23:28;;;;;;;35.47;20.08;;;;;;;1.73;100.00;101867.75;5561494;32;33871;-86
2023/01/25 09:26:32;;;;;;;35.03;19.98;;;;;;;1.51;100.00;101870.97;5552636;32;34797;-85
2023/01/25 09:29:35;;;;;;;34.70;20.33;;;;;;;1.62;100.00;101872.81;5558449;32;34240;-85
2023/01/25 09:32:41;;;;;;;35.80;21.35;;;;;;;1.65;100.00;101868.50;5549459;32;33782;-85
2023/01/25 09:35:48;;;;;;;40.17;20.23;;;;;;;1.49;100.00;101863.09;5559476;32;34908;-85
2023/01/25 09:38:50;;;;;;;39.80;20.30;;;;;;;1.37;100.00;101868.16;5561599;32;34250;-85
2023/01/25 09:42:03;;;;;;;35.60;18.05;;;;;;;1.18;100.00;101868.81;5558965;32;34689;-85
2023/01/25 09:45:23;;;;;;;44.50;20.85;;;;;;;1.09;100.00;101871.28;5562578;32;34210;-85
2023/01/25 09:48:54;;;;;;;33.58;19.85;;;;;;;1.23;100.00;101855.81;5567551;32;34979;-86
2023/01/25 09:52:38;;;;;;;32.45;17.62;;;;;;;1.29;100.00;101857.59;5551226;32;34210;-85
2023/01/25 09:55:41;;;;;;;29.05;14.95;;;;;;;1.56;100.00;101845.75;5560125;32;33816;-86
2023/01/25 09:58:47;;;;;;;30.92;17.05;;;;;;;1.71;100.00;101840.66;5574799;32;34354;-86
2023/01/25 10:02:01;;;;;;;33.25;18.75;;;;;;;1.81;100.00;101836.41;5564484;32;33876;-86
2023/01/25 10:05:15;;;;;;;31.67;18.15;;;;;;;1.52;100.00;101831.75;5552225;32;34084;-86
2023/01/25 10:08:40;;;;;;;28.85;16.87;;;;;;;1.60;100.00;101822.25;5559652;32;35154;-87
2023/01/25 10:11:43;;;;;;;29.37;16.48;;;;;;;1.65;100.00;101816.19;5550775;31;33835;-88
2023/01/25 10:14:47;;;;;;;27.00;15.35;;;;;;;1.78;100.00;101806.72;5548835;32;33887;-87
2023/01/25 10:18:01;;;;;;;27.42;15.27;;;;;;;1.96;100.00;101816.50;5542008;32;33770;-91
2023/01/25 10:21:19;;;;;;;23.98;13.60;;;;;;;2.28;100.00;101808.03;5544001;32;33954;-89
2023/01/25 10:24:30;;;;;;;27.67;15.32;;;;;;;2.47;100.00;101797.69;5541198;32;34548;-86
2023/01/25 10:28:08;;;;;;;27.50;14.95;;;;;;;2.08;100.00;101800.00;5533285;32;33751;-89
2023/01/25 10:31:38;;;;;;;27.87;14.27;;;;;;;1.93;100.00;101795.50;5538485;32;35266;-89
2023/01/25 10:34:47;;;;;;;27.73;14.98;;;;;;;1.93;100.00;101791.16;5534727;32;35380;-88
2023/01/25 10:38:04;;;;;;;27.13;15.25;;;;;;;2.25;100.00;101787.94;5529976;32;34711;-89
2023/01/25 10:41:27;;;;;;;27.08;14.10;;;;;;;2.36;100.00;101782.78;5533196;32;33940;-88
2023/01/25 10:44:30;;;;;;;24.60;13.73;;;;;;;2.34;100.00;101779.28;5533251;32;34887;-87
2023/01/25 10:47:36;;;;;;;26.33;14.18;;;;;;;2.11;100.00;101777.34;5535723;32;34051;-86
2023/01/25 10:50:48;;;;;;;28.35;15.43;;;;;;;2.11;100.00;101777.34;5533194;32;34796;-86
2023/01/25 10:53:57;;;;;;;;;;;;;;;2.32;100.00;101775.78;5536552;32;33971;-92
2023/01/25 10:57:00;;;;;;;30.33;16.70;;;;;;;2.14;100.00;101772.16;5542586;32;34360;-89
2023/01/25 11:00:18;;;;;;;25.20;15.10;;;;;;;2.23;100.00;101765.22;5551366;32;34283;-85
2023/01/25 11:03:21;;;;;;;28.35;15.27;;;;;;;2.20;100.00;101759.97;5539301;32;33928;-86
2023/01/25 11:06:36;;;;;;;24.42;13.80;;;;;;;2.42;100.00;101750.53;5551067;32;34186;-86
2023/01/25 11:09:38;;;;;;;25.23;14.82;;;;;;;2.47;100.00;101747.94;5550187;32;34326;-87
2023/01/25 11:12:41;;;;;;;28.20;16.08;;;;;;;2.33;100.00;101751.34;5543089;32;34373;-89
2023/01/25 11:15:51;;;;;;;28.77;15.63;;;;;;;2.20;100.00;101741.66;5544017;32;33756;-87
2023/01/25 11:18:56;;;;;;;26.75;14.63;;;;;;;2.32;100.00;101740.84;5542922;32;34897;-88
2023/01/25 11:22:02;;;;;;;29.00;15.57;;;;;;;2.32;100.00;101731.25;5544706;32;34303;-88
2023/01/25 11:25:28;;;;;;;30.08;15.63;;;;;;;2.68;100.00;101732.31;5551022;32;34393;-87
2023/01/25 11:28:31;;;;;;;33.60;15.48;;;;;;;2.49;100.00;101723.50;5545026;32;33882;-87
2023/01/25 11:31:34;;;;;;;28.95;15.68;;;;;;;2.42;100.00;101719.94;5546499;32;33926;-87
2023/01/25 11:34:37;;;;;;;28.92;16.12;;;;;;;2.52;100.00;101713.03;5540240;32;33784;-87
2023/01/25 11:37:48;;;;;;;27.77;15.68;;;;;;;2.63;100.00;101699.09;5544418;32;34292;-87
2023/01/25 11:40:57;;;;;;;27.98;15.45;;;;;;;2.73;100.00;101690.44;5544017;32;34322;-86
2023/01/25 11:44:19;;;;;;;26.95;14.75;;;;;;;3.13;100.00;101681.81;5545819;32;34294;-87
2023/01/25 11:47:37;;;;;;;;;;;;;;;3.28;100.00;101672.22;5549649;32;34305;-87
2023/01/25 11:51:03;;;;;;;30.00;16.07;;;;;;;3.17;100.00;101664.34;5554003;32;35152;-87
2023/01/25 11:54:39;;;;;;;28.98;15.75;;;;;;;2.93;100.00;101663.41;5548794;32;34923;-87
2023/01/25 11:57:54;;;;;;;28.98;16.27;;;;;;;2.90;100.00;101643.31;5538903;32;34436;-87
2023/01/25 12:01:06;;;;;;;29.50;16.58;;;;;;;3.47;100.00;101637.25;5540178;32;34488;-87
2023/01/25 12:08:30;;;;;;;26.02;15.13;;;;;;;2.72;100.00;101632.75;3568425;26;20212;-89
2023/01/25 12:11:59;;;;;;;29.60;15.73;;;;;;;2.85;100.00;101631.06;5545755;32;35237;-92
2023/01/25 12:15:15;;;;;;;27.95;15.95;;;;;;;2.89;100.00;101633.69;5569646;26;34514;-89
2023/01/25 12:18:58;;;;;;;30.37;16.05;;;;;;;2.78;100.00;101628.44;5516616;32;34158;-89
2023/01/25 12:22:12;;;;;;;29.70;16.52;;;;;;;2.81;100.00;101612.69;5512423;32;34272;-88
2023/01/25 12:25:27;;;;;;;27.90;17.02;;;;;;;2.78;100.00;101615.31;5512904;32;34881;-92
2023/01/25 12:28:42;;;;;;;30.15;17.10;;;;;;;2.75;100.00;101615.31;5504146;32;34737;-88
2023/01/25 12:31:57;;;;;;;33.10;17.30;;;;;;;2.77;100.00;101605.69;5512131;32;33518;-88
2023/01/25 12:39:12;;;;;;;;;;;;;;;2.58;100.00;101606.50;4026603;30;20450;-89
2023/01/25 12:42:21;;;;;;;27.20;15.75;;;;;;;2.64;100.00;101602.19;5472948;32;34840;-88
2023/01/25 12:45:32;;;;;;;28.98;16.48;;;;;;;2.69;100.00;101603.06;5474686;32;34281;-88
2023/01/25 12:48:44;;;;;;;31.00;17.15;;;;;;;2.73;100.00;101598.72;5475869;32;34055;-88
2023/01/25 12:51:48;;;;;;;28.73;15.80;;;;;;;2.67;100.00;101596.94;5475930;32;34274;-89
2023/01/25 12:54:54;;;;;;;31.98;16.60;;;;;;;2.69;100.00;101589.09;5465223;32;34562;-88
2023/01/25 12:58:00;;;;;;;29.25;16.08;;;;;;;2.64;100.00;101585.56;5464865;32;34585;-88
2023/01/25 13:01:04;;;;;;;28.58;16.05;;;;;;;2.81;100.00;101582.97;5470974;32;34362;-88
2023/01/25 13:04:45;;;;;;;30.50;15.48;;;;;;;2.78;100.00;101578.63;5471549;32;34321;-88
2023/01/25 13:08:05;;;;;;;28.98;16.00;;;;;;;2.97;100.00;101574.28;5468823;32;33969;-88
2023/01/25 13:11:32;;;;;;;29.92;15.77;;;;;;;2.70;100.00;101564.63;5471384;32;33967;-88
2023/01/25 13:14:37;;;;;;;28.73;16.55;;;;;;;2.48;100.00;101574.19;5470090;32;34307;-89
2023/01/25 13:17:40;;;;;;;34.28;17.62;;;;;;;2.51;100.00;101561.09;5467377;32;33998;-89
2023/01/25 13:20:43;;;;;;;31.30;17.05;;;;;;;2.53;100.00;101561.97;5470542;32;33532;-89
2023/01/25 13:24:10;;;;;;;30.95;16.00;;;;;;;2.73;100.00;101564.66;5471253;32;34435;-89
2023/01/25 13:27:27;;;;;;;26.58;15.15;;;;;;;2.66;100.00;101558.50;5470907;32;33459;-89
2023/01/25 13:30:32;;;;;;;29.27;16.23;;;;;;;2.80;100.00;101549.78;5468405;32;33541;-90
2023/01/25 13:33:36;;;;;;;30.62;16.52;;;;;;;2.71;100.00;101558.50;5473783;32;33603;-88
2023/01/25 13:36:44;;;;;;;31.20;16.37;;;;;;;2.93;100.00;101550.69;5485799;32;34102;-88
2023/01/25 13:40:15;;;;;;;30.92;16.58;;;;;;;2.76;100.00;101545.44;5479963;32;33669;-87
2023/01/25 13:43:21;;;;;;;31.63;17.47;;;;;;;2.87;100.00;101541.06;5474873;32;33830;-87
2023/01/25 13:46:24;;;;;;;31.95;17.40;;;;;;;3.03;100.00;101547.22;5474917;32;34897;-88
2023/01/25 13:49:35;;;;;;;38.42;19.12;;;;;;;3.08;100.00;101550.69;5468668;32;34134;-89
2023/01/25 13:52:38;;;;;;;29.60;17.08;;;;;;;3.05;100.00;101545.47;5462889;32;34927;-89
2023/01/25 13:55:47;;;;;;;32.95;17.37;;;;;;;3.04;100.00;101537.59;5482671;32;34240;-89
2023/01/25 13:58:50;;;;;;;31.77;17.70;;;;;;;2.96;100.00;101537.56;5488808;32;34135;-88
2023/01/25 14:01:53;;;;;;;32.97;17.17;;;;;;;2.92;100.00;101539.31;5480602;32;34909;-87
2023/01/25 14:04:57;;;;;;;32.45;18.08;;;;;;;2.98;100.00;101535.84;5471542;32;34029;-87
2023/01/25 14:08:00;;;;;;;32.15;17.27;;;;;;;2.90;100.00;101541.06;5473915;32;33941;-90
2023/01/25 14:11:04;;;;;;;30.85;16.90;;;;;;;2.86;100.00;101533.22;5474361;32;34439;-92
2023/01/25 14:14:13;;;;;;;30.48;17.35;;;;;;;2.88;100.00;101527.09;5469865;32;34543;-92
2023/01/25 14:17:20;;;;;;;32.83;17.33;;;;;;;2.86;100.00;101531.44;5457206;32;33967;-87
2023/01/25 14:20:24;;;;;;;33.92;18.20;;;;;;;2.84;100.00;101522.72;5455952;32;33666;-88
2023/01/25 14:23:29;;;;;;;36.00;17.85;;;;;;;2.88;100.00;101529.72;5477517;32;33614;-87
2023/01/25 14:26:34;;;;;;;32.85;16.92;;;;;;;2.76;100.00;101525.31;5475915;32;34512;-88
2023/01/25 14:29:37;;;;;;;32.40;17.50;;;;;;;2.75;100.00;101525.31;5478744;32;34053;-88
2023/01/25 14:32:45;;;;;;;36.38;17.67;;;;;;;2.67;100.00;101531.44;5476722;32;33688;-88
2023/01/25 14:35:49;;;;;;;30.30;17.12;;;;;;;2.70;100.00;101525.31;5488270;32;34894;-87
2023/01/25 14:38:59;;;;;;;32.22;17.67;;;;;;;2.64;100.00;101520.97;5481238;32;35382;-87
2023/01/25 14:42:03;;;;;;;32.65;17.37;;;;;;;2.61;100.00;101522.69;5476255;32;35221;-88
2023/01/25 14:45:12;;;;;;;30.25;17.23;;;;;;;2.72;100.00;101523.59;5477055;32;34183;-89
2023/01/25 14:48:35;;;;;;;32.58;17.08;;;;;;;2.57;100.00;101513.97;5477020;32;34222;-89
2023/01/25 14:51:50;;;;;;;34.53;18.17;;;;;;;2.67;100.00;101518.31;5473854;32;33804;-89
2023/01/25 14:54:56;;;;;;;31.80;17.00;;;;;;;2.47;100.00;101523.53;5471004;32;34058;-89
2023/01/25 14:58:00;;;;;;;29.67;16.48;;;;;;;2.49;100.00;101513.06;5474486;32;34260;-89
2023/01/25 15:01:04;;;;;;;32.20;17.02;;;;;;;2.57;100.00;101516.59;5507706;27;33879;-90
2023/01/25 15:04:12;;;;;;;33.40;18.17;;;;;;;2.56;100.00;101510.47;5476146;32;34308;-89
2023/01/25 15:07:43;;;;;;;31.12;17.55;;;;;;;2.48;100.00;101509.56;5474828;32;33919;-89
2023/01/25 15:14:21;;;;;;;29.23;16.27;;;;;;;2.47;100.00;101499.94;5494066;32;33630;-89
2023/01/25 15:17:41;;;;;;;30.40;16.48;;;;;;;2.51;100.00;101504.31;5477187;32;34046;-89
2023/01/25 15:20:48;;;;;;;36.10;17.37;;;;;;;2.50;100.00;101504.31;5468269;32;34026;-88
2023/01/25 15:23:54;;;;;;;31.02;17.67;;;;;;;2.44;100.00;101507.81;5475265;32;33880;-89
2023/01/25 15:26:57;;;;;;;29.63;16.75;;;;;;;2.40;100.00;101503.44;5475128;32;33931;-89
2023/01/25 15:29:59;;;;;;;33.22;16.27;;;;;;;2.44;100.00;101497.34;5477005;32;34156;-87
2023/01/25 15:33:05;;;;;;;30.08;16.85;;;;;;;2.39;100.00;101506.91;5476725;32;34296;-88
2023/01/25 15:36:08;;;;;;;30.05;16.75;;;;;;;2.30;100.00;101502.53;5475653;32;34072;-87
2023/01/25 15:39:14;;;;;;;31.85;17.30;;;;;;;2.28;100.00;101507.75;5475192;32;34387;-87
2023/01/25 15:42:17;;;;;;;33.80;17.60;;;;;;;2.34;100.00;101506.03;5475938;32;33630;-88
2023/01/25 15:45:20;;;;;;;37.20;18.30;;;;;;;2.25;100.00;101504.25;5481779;32;35414;-88
2023/01/25 15:48:29;;;;;;;37.95;19.70;;;;;;;2.18;100.00;101503.38;5488128;32;35329;-88
2023/01/25 15:51:32;;;;;;;32.80;19.33;;;;;;;2.25;100.00;101501.63;5475328;32;36875;-87
2023/01/25 15:54:37;;;;;;;31.92;18.58;;;;;;;2.22;100.00;101504.25;5474929;32;34700;-87
2023/01/25 15:57:43;;;;;;;35.78;18.70;;;;;;;2.14;100.00;101501.59;5474941;32;34130;-87
2023/01/25 16:00:48;;;;;;;32.03;18.20;;;;;;;2.09;100.00;101499.00;5475519;32;34098;-89
2023/01/25 16:03:55;;;;;;;32.20;18.00;;;;;;;2.13;100.00;101498.13;5479892;32;34400;-88
2023/01/25 16:06:59;;;;;;;31.42;16.62;;;;;;;2.17;100.00;101495.50;5487102;32;34774;-88
2023/01/25 16:10:03;;;;;;;31.60;16.12;;;;;;;2.25;100.00;101488.53;5487444;32;33993;-88
2023/01/25 16:13:08;;;;;;;31.12;15.88;;;;;;;2.15;100.00;101487.66;5481507;32;35267;-88
2023/01/25 16:16:23;;;;;;;31.37;16.42;;;;;;;2.15;100.00;101485.03;5473395;32;33691;-88
2023/01/25 16:19:26;;;;;;;31.92;16.33;;;;;;;2.15;100.00;101482.41;5473191;32;33797;-88
2023/01/25 16:22:29;;;;;;;28.02;15.35;;;;;;;2.10;100.00;101487.63;5473298;32;34188;-88
2023/01/25 16:25:33;;;;;;;29.92;14.50;;;;;;;2.16;100.00;101481.53;5473468;32;35239;-90
2023/01/25 16:28:36;;;;;;;34.17;16.80;;;;;;;2.19;100.00;101486.81;5473330;32;35023;-91
2023/01/25 16:31:39;;;;;;;27.65;14.87;;;;;;;2.25;100.00;101481.56;5474583;32;35341;-92
2023/01/25 16:34:42;;;;;;;32.03;15.70;;;;;;;2.10;100.00;101478.91;5474054;32;33811;-89
2023/01/25 16:37:45;;;;;;;26.90;14.77;;;;;;;2.13;100.00;101484.16;5473756;32;33604;-89
2023/01/25 16:40:49;;;;;;;28.85;15.45;;;;;;;2.18;100.00;101478.94;5472996;32;34212;-89
2023/01/25 16:43:52;;;;;;;28.70;15.02;;;;;;;2.12;100.00;101472.81;5472668;32;34089;-89
